Time;durP1;ratioP1;P1;durP2;ratioP2;P2;SDS_P1;SDS_P2;PMS_P1;PMS_P2;Temp;Humidity;BMP_temperature;BMP_pressure;BME280_temperature;BME280_humidity;BME280_pressure;Samples;Min_cycle;Max_cycle;Signal;HPM_P1;HPM_P2
2022/06/07 00:00:30;;;;;;;2.50;1.02;;;20.70;99.90;;;;;;7386126;19;20154;-75
2022/06/07 00:02:57;;;;;;;1.60;1.00;;;20.50;99.90;;;;;;7390079;19;20590;-76
2022/06/07 00:05:22;;;;;;;1.10;0.85;;;20.50;99.90;;;;;;7389653;19;20170;-75
2022/06/07 00:07:49;;;;;;;0.80;0.70;;;20.60;99.90;;;;;;7385567;19;20154;-75
2022/06/07 00:10:15;;;;;;;1.13;0.90;;;20.50;99.90;;;;;;7389268;19;20650;-75
2022/06/07 00:12:41;;;;;;;1.45;0.90;;;20.50;99.90;;;;;;7387707;19;20138;-74
2022/06/07 00:15:08;;;;;;;1.00;0.60;;;20.50;99.90;;;;;;7392274;19;20127;-75
2022/06/07 00:17:34;;;;;;;0.93;0.85;;;20.40;99.90;;;;;;7384196;19;20161;-77
2022/06/07 00:20:00;;;;;;;1.42;0.80;;;20.50;99.90;;;;;;7391479;19;20165;-74
2022/06/07 00:22:26;;;;;;;0.88;0.80;;;20.50;99.90;;;;;;7389698;19;20497;-75
2022/06/07 00:24:51;;;;;;;1.00;0.80;;;20.40;99.90;;;;;;7386916;19;20151;-76
2022/06/07 00:27:17;;;;;;;1.17;0.80;;;20.40;99.90;;;;;;7384428;19;20165;-76
2022/06/07 00:29:45;;;;;;;1.77;1.00;;;20.40;99.90;;;;;;7388127;19;20620;-76
2022/06/07 00:32:12;;;;;;;2.55;0.90;;;20.30;99.90;;;;;;7386572;19;20134;-74
2022/06/07 00:34:38;;;;;;;0.70;0.70;;;20.40;99.90;;;;;;7384380;19;20143;-76
2022/06/07 00:37:04;;;;;;;2.25;0.80;;;20.50;99.90;;;;;;7389392;19;20154;-74
2022/06/07 00:39:29;;;;;;;1.88;0.80;;;20.50;99.90;;;;;;7385789;19;20137;-75
2022/06/07 00:41:55;;;;;;;2.13;0.80;;;20.50;99.90;;;;;;7385146;19;20135;-77
2022/06/07 00:44:21;;;;;;;0.77;0.60;;;20.40;99.90;;;;;;7385202;19;20177;-76
2022/06/07 00:46:55;;;;;;;1.00;0.80;;;20.40;99.90;;;;;;7385012;19;20221;-75
2022/06/07 00:49:22;;;;;;;1.13;0.80;;;20.50;99.90;;;;;;7384217;19;20149;-76
2022/06/07 00:51:49;;;;;;;0.55;0.47;;;20.40;99.90;;;;;;7387350;19;20192;-76
2022/06/07 00:54:25;;;;;;;0.90;0.70;;;20.20;99.90;;;;;;7385165;19;20165;-76
2022/06/07 00:56:51;;;;;;;0.60;0.60;;;20.20;99.90;;;;;;7385748;19;20621;-74
2022/06/07 00:59:17;;;;;;;2.95;0.70;;;20.20;99.90;;;;;;7385587;19;20560;-75
2022/06/07 01:01:43;;;;;;;1.00;0.63;;;20.30;99.90;;;;;;7387566;19;20156;-77
2022/06/07 01:04:09;;;;;;;0.90;0.65;;;20.30;99.90;;;;;;7387752;19;20498;-76
2022/06/07 01:12:04;;;;;;;2.60;0.55;;;20.30;99.90;;;;;;7388798;19;20135;-75
2022/06/07 01:14:30;;;;;;;0.77;0.57;;;19.90;99.90;;;;;;7390999;19;20155;-76
2022/06/07 01:16:56;;;;;;;1.83;0.50;;;19.80;99.90;;;;;;7386538;19;20147;-77
2022/06/07 01:19:22;;;;;;;0.80;0.77;;;19.70;99.90;;;;;;7384595;19;20688;-76
2022/06/07 01:21:48;;;;;;;0.82;0.68;;;19.90;99.90;;;;;;7394429;19;20162;-76
2022/06/07 01:24:15;;;;;;;0.60;0.60;;;20.10;99.90;;;;;;7392643;19;20126;-75
2022/06/07 01:26:42;;;;;;;1.00;0.55;;;19.70;99.90;;;;;;7392460;19;20506;-77
2022/06/07 01:29:10;;;;;;;1.35;0.70;;;19.80;99.90;;;;;;7390962;19;20162;-77
2022/06/07 01:31:36;;;;;;;1.08;0.65;;;19.80;99.90;;;;;;7392966;19;20209;-76
2022/06/07 01:34:02;;;;;;;0.57;0.57;;;19.90;99.90;;;;;;7395352;19;20138;-76
2022/06/07 01:36:28;;;;;;;1.30;0.50;;;19.90;99.90;;;;;;7391129;19;20513;-76
2022/06/07 01:41:56;;;;;;;1.17;0.70;;;19.90;99.90;;;;;;7392115;19;20613;-76
2022/06/07 01:44:36;;;;;;;1.98;0.70;;;19.90;99.90;;;;;;7393072;19;20134;-75
2022/06/07 01:47:02;;;;;;;0.50;0.50;;;19.70;99.90;;;;;;7391843;19;20150;-74
2022/06/07 01:49:28;;;;;;;0.63;0.63;;;19.80;99.90;;;;;;7391367;19;20134;-75
2022/06/07 01:51:55;;;;;;;0.80;0.52;;;19.70;99.90;;;;;;7390785;19;20145;-75
2022/06/07 01:54:22;;;;;;;0.85;0.73;;;19.70;99.90;;;;;;7391464;19;20143;-75
2022/06/07 01:56:49;;;;;;;0.82;0.63;;;19.70;99.90;;;;;;7394591;19;20167;-76
2022/06/07 01:59:16;;;;;;;0.80;0.60;;;19.80;99.90;;;;;;7391869;19;20149;-77
2022/06/07 02:01:42;;;;;;;1.52;0.70;;;19.80;99.90;;;;;;7391868;19;20134;-75
2022/06/07 02:04:08;;;;;;;1.30;0.73;;;19.70;99.90;;;;;;7389804;19;20189;-74
2022/06/07 02:06:34;;;;;;;1.15;0.80;;;19.70;99.90;;;;;;7393339;19;20139;-76
2022/06/07 02:09:00;;;;;;;1.52;0.75;;;19.60;99.90;;;;;;7391886;19;20143;-76
2022/06/07 02:11:27;;;;;;;2.60;0.90;;;19.60;99.90;;;;;;7387379;19;20921;-75
2022/06/07 02:13:53;;;;;;;0.70;0.57;;;19.60;99.90;;;;;;7391356;19;20161;-76
2022/06/07 02:16:20;;;;;;;0.63;0.50;;;19.50;99.90;;;;;;7389793;19;20168;-75
2022/06/07 02:18:47;;;;;;;0.50;0.50;;;19.50;99.90;;;;;;7388225;19;20163;-75
2022/06/07 02:21:17;;;;;;;1.30;0.70;;;19.40;99.90;;;;;;7391534;19;20150;-76
2022/06/07 02:23:43;;;;;;;0.70;0.70;;;19.40;99.90;;;;;;7389406;19;20148;-76
2022/06/07 02:26:14;;;;;;;1.65;0.50;;;19.40;99.90;;;;;;7391197;19;20139;-76
2022/06/07 02:28:42;;;;;;;2.70;0.80;;;19.40;99.90;;;;;;7387570;19;20149;-75
2022/06/07 02:31:09;;;;;;;1.08;0.80;;;19.40;99.90;;;;;;7388246;19;20222;-75
2022/06/07 02:33:38;;;;;;;0.98;0.50;;;19.20;99.90;;;;;;7390236;19;20167;-75
2022/06/07 02:36:06;;;;;;;0.70;0.50;;;19.30;99.90;;;;;;7392444;19;20161;-76
2022/06/07 02:38:33;;;;;;;1.00;0.60;;;19.10;99.90;;;;;;7392068;19;20143;-76
2022/06/07 02:41:00;;;;;;;0.60;0.60;;;19.00;99.90;;;;;;7388972;19;20142;-76
2022/06/07 02:43:26;;;;;;;0.77;0.40;;;19.10;99.90;;;;;;7390872;19;20154;-76
2022/06/07 02:45:53;;;;;;;0.63;0.50;;;18.90;99.90;;;;;;7392382;19;20166;-75
2022/06/07 02:48:18;;;;;;;2.35;0.52;;;19.10;99.90;;;;;;7390046;19;20544;-76
2022/06/07 02:50:44;;;;;;;1.27;0.50;;;19.20;99.90;;;;;;7390548;19;20233;-76
2022/06/07 02:53:12;;;;;;;0.82;0.70;;;19.20;99.90;;;;;;7390009;19;20135;-75
2022/06/07 02:55:38;;;;;;;1.05;0.50;;;19.30;99.90;;;;;;7390946;19;20149;-77
2022/06/07 02:58:05;;;;;;;0.50;0.43;;;19.30;99.90;;;;;;7388588;19;20127;-75
2022/06/07 03:00:30;;;;;;;0.55;0.50;;;19.40;99.90;;;;;;7390970;19;20150;-76
2022/06/07 03:02:56;;;;;;;1.77;0.80;;;19.20;99.90;;;;;;7391957;19;20597;-75
2022/06/07 03:05:23;;;;;;;1.92;0.60;;;19.20;99.90;;;;;;7391740;19;20138;-76
2022/06/07 03:07:49;;;;;;;0.65;0.50;;;19.20;99.90;;;;;;7392405;19;20164;-76
2022/06/07 03:10:15;;;;;;;1.30;0.60;;;19.20;99.90;;;;;;7387911;19;20163;-77
2022/06/07 03:12:41;;;;;;;1.27;0.68;;;19.20;99.90;;;;;;7393214;19;20634;-76
2022/06/07 03:15:08;;;;;;;1.25;0.68;;;19.20;99.90;;;;;;7387790;19;20150;-76
2022/06/07 03:17:35;;;;;;;0.60;0.50;;;19.20;99.90;;;;;;7387040;19;20609;-75
2022/06/07 03:20:01;;;;;;;1.10;0.50;;;19.10;99.90;;;;;;7390074;19;20138;-75
2022/06/07 03:22:27;;;;;;;0.60;0.50;;;19.10;99.90;;;;;;7391186;19;20131;-75
2022/06/07 03:24:52;;;;;;;0.60;0.60;;;19.20;99.90;;;;;;7389271;19;20153;-76
2022/06/07 03:27:18;;;;;;;1.65;0.70;;;19.30;99.90;;;;;;7389918;19;20486;-76
2022/06/07 03:29:44;;;;;;;1.20;0.90;;;19.20;99.90;;;;;;7390648;19;20138;-75
2022/06/07 03:32:10;;;;;;;1.15;0.50;;;19.20;99.90;;;;;;7390699;19;20601;-75
2022/06/07 03:34:37;;;;;;;2.28;0.60;;;19.20;99.90;;;;;;7390723;19;20924;-75
2022/06/07 03:37:03;;;;;;;2.50;0.68;;;19.20;99.90;;;;;;7388001;19;20134;-76
2022/06/07 03:39:30;;;;;;;0.85;0.65;;;19.20;99.90;;;;;;7387317;19;20531;-76
2022/06/07 03:41:55;;;;;;;2.80;0.80;;;19.10;99.90;;;;;;7386614;19;20145;-75
2022/06/07 03:44:21;;;;;;;0.50;0.50;;;19.10;99.90;;;;;;7389555;19;20491;-76
2022/06/07 03:46:47;;;;;;;0.65;0.55;;;19.10;99.90;;;;;;7386179;19;20485;-77
2022/06/07 03:49:14;;;;;;;0.90;0.70;;;19.10;99.90;;;;;;7387579;19;20138;-75
2022/06/07 03:51:41;;;;;;;1.38;0.70;;;19.10;99.90;;;;;;7387634;19;20143;-76
2022/06/07 03:54:06;;;;;;;1.30;1.00;;;19.10;99.90;;;;;;7390785;19;20149;-76
2022/06/07 03:56:33;;;;;;;0.82;0.57;;;18.90;99.90;;;;;;7389699;19;20613;-75
2022/06/07 03:58:59;;;;;;;0.73;0.60;;;18.80;99.90;;;;;;7390139;19;20134;-75
2022/06/07 04:01:27;;;;;;;1.88;0.80;;;18.80;99.90;;;;;;7388293;19;20142;-77
2022/06/07 04:03:56;;;;;;;0.73;0.60;;;18.90;99.90;;;;;;7390445;19;20175;-76
2022/06/07 04:06:29;;;;;;;0.40;0.40;;;18.90;99.90;;;;;;7384841;19;20135;-76
2022/06/07 04:08:55;;;;;;;1.80;0.70;;;18.70;99.90;;;;;;7389592;19;20142;-76
2022/06/07 04:11:24;;;;;;;3.70;1.20;;;18.90;99.90;;;;;;7388640;19;20662;-76
2022/06/07 04:13:51;;;;;;;0.98;0.70;;;18.90;99.90;;;;;;7391154;19;20164;-77
2022/06/07 04:16:20;;;;;;;1.70;0.70;;;18.90;99.90;;;;;;7389424;19;20145;-76
2022/06/07 04:18:46;;;;;;;0.70;0.70;;;19.00;99.90;;;;;;7386221;19;20162;-75
2022/06/07 04:21:13;;;;;;;1.20;0.70;;;19.20;99.90;;;;;;7389710;19;20632;-75
2022/06/07 04:23:40;;;;;;;1.05;0.50;;;19.20;99.90;;;;;;7388205;19;20161;-75
2022/06/07 04:26:14;;;;;;;2.22;0.63;;;19.20;99.90;;;;;;7387785;19;20150;-75
2022/06/07 04:28:40;;;;;;;0.50;0.40;;;19.40;99.90;;;;;;7388322;19;20137;-77
2022/06/07 04:31:13;;;;;;;1.38;0.73;;;19.30;99.90;;;;;;7388376;19;20155;-76
2022/06/07 04:33:39;;;;;;;1.65;0.85;;;19.20;99.90;;;;;;7387878;19;20155;-76
2022/06/07 04:36:22;;;;;;;3.15;0.70;;;19.20;99.90;;;;;;7389760;19;20172;-75
2022/06/07 04:38:49;;;;;;;0.73;0.50;;;19.20;99.90;;;;;;7387460;19;20130;-74
2022/06/07 04:41:17;;;;;;;1.35;0.70;;;19.20;99.90;;;;;;7388564;19;20142;-75
2022/06/07 04:43:43;;;;;;;0.60;0.50;;;19.20;99.90;;;;;;7386605;19;20150;-75
2022/06/07 04:46:14;;;;;;;1.90;0.60;;;19.10;99.90;;;;;;7389442;19;20558;-77
2022/06/07 04:48:41;;;;;;;0.70;0.60;;;19.10;99.90;;;;;;7387664;19;20546;-76
2022/06/07 04:51:11;;;;;;;1.60;0.70;;;19.10;99.90;;;;;;7386849;19;20125;-78
2022/06/07 04:53:37;;;;;;;1.52;0.80;;;19.00;99.90;;;;;;7393923;19;20138;-78
2022/06/07 04:56:08;;;;;;;1.83;0.70;;;19.10;99.90;;;;;;7395539;19;20146;-77
2022/06/07 04:58:34;;;;;;;0.82;0.60;;;19.20;99.90;;;;;;7395936;19;20143;-78
2022/06/07 05:01:00;;;;;;;1.15;0.80;;;19.20;99.90;;;;;;7394899;19;20160;-76
2022/06/07 05:03:26;;;;;;;0.80;0.70;;;19.20;99.90;;;;;;7396284;19;20214;-77
2022/06/07 05:05:51;;;;;;;0.85;0.52;;;19.20;99.90;;;;;;7392445;19;20135;-77
2022/06/07 05:08:17;;;;;;;1.85;0.75;;;19.30;99.90;;;;;;7393079;19;20199;-76
2022/06/07 05:10:43;;;;;;;1.48;1.02;;;19.30;99.90;;;;;;7396048;19;20158;-77
2022/06/07 05:13:09;;;;;;;3.50;0.70;;;19.40;99.90;;;;;;7398033;19;20134;-77
2022/06/07 05:15:35;;;;;;;1.40;0.95;;;19.30;99.90;;;;;;7393328;19;20669;-81
2022/06/07 05:18:01;;;;;;;1.33;0.80;;;19.10;99.90;;;;;;7397760;19;20155;-80
2022/06/07 05:20:26;;;;;;;1.85;1.00;;;18.90;99.90;;;;;;7393670;19;20489;-80
2022/06/07 05:22:52;;;;;;;3.20;0.80;;;19.00;99.90;;;;;;7395345;19;20218;-80
2022/06/07 05:25:19;;;;;;;2.17;0.63;;;19.00;99.90;;;;;;7395789;19;20150;-78
2022/06/07 05:27:49;;;;;;;1.15;0.70;;;19.10;99.90;;;;;;7394576;19;20150;-77
2022/06/07 05:30:15;;;;;;;1.25;0.70;;;19.20;99.90;;;;;;7396209;19;20138;-76
2022/06/07 05:32:42;;;;;;;1.42;0.70;;;19.10;99.90;;;;;;7393088;19;20170;-75
2022/06/07 05:35:08;;;;;;;0.57;0.57;;;19.00;99.90;;;;;;7394447;19;20618;-75
2022/06/07 05:37:35;;;;;;;1.52;0.75;;;19.10;99.90;;;;;;7393014;19;20164;-75
2022/06/07 05:40:03;;;;;;;2.55;0.55;;;19.10;99.90;;;;;;7392293;19;20573;-75
2022/06/07 05:42:29;;;;;;;1.10;0.80;;;19.10;99.90;;;;;;7392660;19;20171;-76
2022/06/07 05:44:57;;;;;;;11.13;6.95;;;19.20;99.90;;;;;;7394185;19;20151;-75
2022/06/07 05:47:23;;;;;;;2.35;1.52;;;19.30;99.90;;;;;;7393642;19;20171;-76
2022/06/07 05:49:49;;;;;;;1.63;1.17;;;19.30;99.90;;;;;;7393812;19;20142;-76
2022/06/07 05:52:15;;;;;;;2.30;1.20;;;19.40;99.90;;;;;;7392864;19;20474;-76
2022/06/07 05:54:41;;;;;;;2.63;0.80;;;19.60;99.90;;;;;;7394278;19;20149;-75
2022/06/07 05:57:08;;;;;;;2.50;0.90;;;19.60;99.90;;;;;;7391421;19;20131;-76
2022/06/07 05:59:34;;;;;;;1.23;0.73;;;19.40;99.90;;;;;;7394976;19;20131;-76
2022/06/07 06:02:00;;;;;;;1.23;0.70;;;19.30;99.90;;;;;;7393223;19;20146;-76
2022/06/07 06:04:26;;;;;;;1.85;0.90;;;19.10;99.90;;;;;;7390551;19;20186;-77
2022/06/07 06:06:58;;;;;;;1.73;0.82;;;19.10;99.90;;;;;;7393032;19;20215;-79
2022/06/07 06:12:09;;;;;;;3.05;1.70;;;19.70;99.90;;;;;;7395352;19;20143;-77
2022/06/07 06:14:36;;;;;;;2.58;0.82;;;19.80;99.90;;;;;;7393062;19;20170;-78
2022/06/07 06:17:01;;;;;;;1.77;0.95;;;19.60;99.90;;;;;;7392633;19;20146;-75
2022/06/07 06:19:27;;;;;;;1.05;0.80;;;19.40;99.90;;;;;;7388034;19;20150;-76
2022/06/07 06:21:53;;;;;;;1.10;0.80;;;19.40;99.90;;;;;;7394248;19;20246;-75
2022/06/07 06:24:23;;;;;;;2.70;0.93;;;19.70;99.90;;;;;;7387310;19;20181;-75
2022/06/07 06:26:51;;;;;;;1.35;0.60;;;19.70;99.90;;;;;;7392624;19;20142;-76
2022/06/07 06:29:17;;;;;;;2.60;0.70;;;20.30;99.90;;;;;;7384109;19;20248;-76
2022/06/07 06:31:43;;;;;;;2.88;0.65;;;20.70;99.90;;;;;;7392497;19;20134;-76
2022/06/07 06:34:09;;;;;;;1.02;0.60;;;20.50;99.90;;;;;;7387230;19;20598;-75
2022/06/07 06:36:35;;;;;;;0.68;0.50;;;21.00;99.90;;;;;;7391592;19;20587;-76
2022/06/07 06:39:01;;;;;;;1.80;0.98;;;21.00;99.90;;;;;;7388022;19;20142;-76
2022/06/07 06:41:29;;;;;;;1.45;0.98;;;21.40;99.90;;;;;;7389760;19;20135;-75
2022/06/07 06:43:58;;;;;;;2.20;1.10;;;21.90;99.90;;;;;;7389549;19;20146;-75
2022/06/07 06:46:31;;;;;;;1.38;1.10;;;22.40;99.90;;;;;;7389118;19;20175;-76
2022/06/07 06:48:57;;;;;;;2.58;0.90;;;23.50;99.90;;;;;;7389088;19;20149;-76
2022/06/07 06:51:25;;;;;;;3.45;1.10;;;24.30;99.90;;;;;;7389246;19;20472;-75
2022/06/07 06:53:52;;;;;;;3.03;1.00;;;23.40;99.90;;;;;;7389695;19;20190;-76
2022/06/07 06:56:21;;;;;;;0.90;0.90;;;23.40;99.90;;;;;;7390988;19;20139;-76
2022/06/07 06:58:48;;;;;;;4.38;2.05;;;23.10;99.90;;;;;;7388557;19;20187;-76
2022/06/07 07:01:17;;;;;;;2.55;1.10;;;22.70;99.90;;;;;;7387695;19;20163;-76
2022/06/07 07:03:44;;;;;;;2.60;1.90;;;22.80;99.90;;;;;;7388608;19;20626;-75
2022/06/07 07:06:12;;;;;;;1.70;0.98;;;23.60;99.90;;;;;;7387611;19;20151;-74
2022/06/07 07:08:39;;;;;;;0.90;0.80;;;24.50;99.90;;;;;;7387874;19;20131;-75
2022/06/07 07:11:07;;;;;;;1.05;0.70;;;24.60;99.90;;;;;;7389286;19;20146;-76
2022/06/07 07:13:34;;;;;;;1.95;0.68;;;24.80;99.90;;;;;;7392804;19;20142;-75
2022/06/07 07:16:04;;;;;;;0.65;0.45;;;24.50;99.90;;;;;;7387732;19;20138;-75
2022/06/07 07:18:31;;;;;;;2.15;0.65;;;24.30;99.90;;;;;;7386534;19;20158;-76
2022/06/07 07:20:56;;;;;;;2.33;1.20;;;23.40;99.90;;;;;;7388931;19;20134;-75
2022/06/07 07:23:24;;;;;;;4.05;1.00;;;22.90;99.90;;;;;;7391013;19;20207;-75
2022/06/07 07:25:50;;;;;;;1.20;0.80;;;22.60;99.90;;;;;;7383534;19;20135;-76
2022/06/07 07:28:17;;;;;;;0.98;0.50;;;22.10;99.90;;;;;;7390839;19;20139;-75
2022/06/07 07:30:43;;;;;;;1.65;0.60;;;22.30;99.90;;;;;;7388633;19;20153;-75
2022/06/07 07:33:09;;;;;;;1.80;1.08;;;22.70;99.90;;;;;;7389436;19;20134;-75
2022/06/07 07:35:35;;;;;;;4.63;1.75;;;23.30;99.90;;;;;;7389716;19;20146;-74
2022/06/07 07:38:02;;;;;;;8.75;4.07;;;23.50;99.90;;;;;;7387438;19;20164;-76
2022/06/07 07:40:28;;;;;;;5.28;2.10;;;23.50;99.90;;;;;;7387373;19;20137;-76
2022/06/07 07:42:54;;;;;;;2.80;1.55;;;23.30;99.90;;;;;;7386522;19;20228;-75
2022/06/07 07:45:20;;;;;;;8.32;3.63;;;23.00;99.90;;;;;;7386052;19;20506;-74
2022/06/07 07:47:45;;;;;;;3.95;1.90;;;23.00;99.90;;;;;;7389693;19;20141;-76
2022/06/07 07:50:12;;;;;;;2.88;2.08;;;22.50;99.90;;;;;;7388078;19;20146;-75
2022/06/07 07:52:38;;;;;;;1.90;1.02;;;22.10;99.90;;;;;;7387785;19;20159;-77
2022/06/07 07:55:05;;;;;;;3.90;2.17;;;22.40;99.90;;;;;;7387263;19;20590;-77
2022/06/07 07:57:31;;;;;;;1.70;1.60;;;22.80;99.90;;;;;;7389666;19;20160;-76
2022/06/07 07:59:58;;;;;;;1.55;1.13;;;22.90;99.90;;;;;;7389671;19;20646;-76
2022/06/07 08:02:24;;;;;;;4.22;2.38;;;22.70;99.90;;;;;;7386865;19;20614;-74
2022/06/07 08:04:50;;;;;;;5.80;3.00;;;22.20;99.90;;;;;;7386490;19;20285;-74
2022/06/07 08:07:16;;;;;;;7.22;3.47;;;22.30;99.90;;;;;;7387746;19;20139;-76
2022/06/07 08:09:43;;;;;;;2.33;1.50;;;22.10;99.90;;;;;;7385022;19;20551;-76
2022/06/07 08:12:09;;;;;;;19.17;8.30;;;22.20;99.90;;;;;;7389720;19;20643;-75
2022/06/07 08:14:36;;;;;;;5.78;2.55;;;22.30;99.90;;;;;;7388953;19;20145;-75
2022/06/07 08:17:03;;;;;;;4.65;1.70;;;22.50;99.90;;;;;;7384617;19;20902;-75
2022/06/07 08:19:30;;;;;;;2.92;1.60;;;22.50;99.90;;;;;;7385529;19;20526;-76
2022/06/07 08:21:56;;;;;;;2.45;1.10;;;22.70;99.90;;;;;;7389608;19;20806;-76
2022/06/07 08:24:22;;;;;;;1.23;0.88;;;22.60;99.90;;;;;;7386323;19;20134;-75
2022/06/07 08:26:49;;;;;;;3.55;1.10;;;22.60;99.90;;;;;;7384457;19;20701;-76
2022/06/07 08:29:20;;;;;;;1.83;0.75;;;23.70;99.90;;;;;;7382476;19;20628;-77
2022/06/07 08:31:46;;;;;;;1.75;1.20;;;24.40;99.50;;;;;;7386439;19;20158;-77
2022/06/07 08:39:44;;;;;;;1.13;0.90;;;23.50;99.90;;;;;;7383997;19;20149;-75
2022/06/07 08:42:17;;;;;;;0.68;0.68;;;23.20;99.90;;;;;;7387161;19;20148;-76
2022/06/07 08:44:47;;;;;;;0.90;0.70;;;23.50;99.90;;;;;;7387100;19;20130;-76
2022/06/07 08:47:41;;;;;;;2.30;1.80;;;24.00;99.70;;;;;;7386928;19;20130;-76
2022/06/07 08:50:23;;;;;;;2.85;2.30;;;24.60;99.90;;;;;;7383352;19;20235;-75
2022/06/07 08:53:03;;;;;;;1.50;0.90;;;24.80;98.50;;;;;;7385149;19;20135;-75
2022/06/07 08:55:42;;;;;;;1.35;0.73;;;24.50;98.40;;;;;;7384754;19;20142;-75
2022/06/07 08:58:26;;;;;;;0.80;0.63;;;23.60;99.40;;;;;;7384744;19;20149;-76
2022/06/07 09:00:57;;;;;;;1.25;0.60;;;23.20;99.90;;;;;;7387262;19;20138;-76
2022/06/07 09:03:32;;;;;;;0.65;0.50;;;23.10;99.90;;;;;;7392557;19;20138;-77
2022/06/07 09:06:01;;;;;;;1.52;0.88;;;23.40;99.90;;;;;;7384360;19;20142;-76
2022/06/07 09:08:35;;;;;;;1.23;0.70;;;23.60;99.80;;;;;;7382619;19;20150;-75
2022/06/07 09:13:51;;;;;;;0.82;0.47;;;24.50;97.90;;;;;;7386430;19;20156;-75
2022/06/07 09:16:17;;;;;;;0.57;0.57;;;24.80;97.20;;;;;;7388664;19;20138;-75
2022/06/07 09:18:45;;;;;;;0.63;0.52;;;25.00;96.90;;;;;;7384260;19;20475;-75
2022/06/07 09:21:28;;;;;;;0.50;0.40;;;25.10;96.30;;;;;;7384862;19;20135;-75
2022/06/07 09:23:55;;;;;;;0.77;0.40;;;24.40;97.20;;;;;;7383822;19;20150;-76
2022/06/07 09:26:27;;;;;;;1.35;0.68;;;23.80;97.30;;;;;;7384516;19;20155;-75
2022/06/07 09:29:23;;;;;;;0.80;0.80;;;23.60;98.40;;;;;;7385770;19;20158;-74
2022/06/07 09:31:51;;;;;;;1.15;0.60;;;23.50;98.30;;;;;;7386434;19;20163;-74
2022/06/07 09:34:29;;;;;;;0.40;0.40;;;23.30;98.80;;;;;;7383558;19;20222;-75
2022/06/07 09:37:01;;;;;;;0.93;0.50;;;23.10;99.00;;;;;;7385749;19;20613;-74
2022/06/07 09:39:38;;;;;;;3.92;2.13;;;23.00;99.50;;;;;;7381729;19;20204;-74
2022/06/07 09:42:15;;;;;;;1.40;0.70;;;22.80;99.20;;;;;;7392544;19;20138;-75
2022/06/07 09:44:58;;;;;;;0.65;0.60;;;22.90;99.60;;;;;;7390267;19;20149;-76
2022/06/07 09:47:28;;;;;;;1.00;0.70;;;22.50;99.50;;;;;;7391265;19;20146;-76
2022/06/07 09:50:24;;;;;;;1.40;0.70;;;22.50;99.70;;;;;;7391437;19;20150;-75
2022/06/07 09:52:57;;;;;;;2.35;0.60;;;22.60;99.90;;;;;;7386955;19;20682;-77
2022/06/07 09:56:05;;;;;;;0.77;0.60;;;22.70;99.80;;;;;;7390361;19;20158;-75
2022/06/07 09:58:49;;;;;;;0.60;0.60;;;23.00;99.30;;;;;;7388380;19;20146;-76
2022/06/07 10:01:40;;;;;;;1.02;0.50;;;23.20;98.50;;;;;;7394887;19;20229;-75
2022/06/07 10:04:26;;;;;;;3.85;2.78;;;23.00;98.00;;;;;;7386325;19;20302;-76
2022/06/07 10:06:59;;;;;;;1.40;1.13;;;22.80;98.10;;;;;;7390635;19;20254;-76
2022/06/07 10:09:34;;;;;;;1.33;1.08;;;22.70;98.70;;;;;;7387150;19;20130;-74
2022/06/07 10:12:12;;;;;;;2.47;2.05;;;22.60;99.00;;;;;;7392826;19;20142;-75
2022/06/07 10:14:48;;;;;;;2.70;1.70;;;22.60;98.80;;;;;;7393678;19;20139;-75
2022/06/07 10:17:54;;;;;;;1.67;1.55;;;22.50;99.20;;;;;;7387641;19;20143;-76
2022/06/07 10:20:28;;;;;;;3.55;1.30;;;22.40;99.30;;;;;;7390381;19;20139;-76
2022/06/07 10:23:07;;;;;;;1.23;0.80;;;22.50;99.90;;;;;;7391975;19;20138;-76
2022/06/07 10:25:57;;;;;;;1.35;0.85;;;22.60;99.60;;;;;;7386753;19;20139;-75
2022/06/07 10:28:40;;;;;;;3.53;1.10;;;22.70;99.90;;;;;;7390558;19;20251;-74
2022/06/07 10:31:05;;;;;;;2.47;2.10;;;22.80;99.90;;;;;;7389892;19;20154;-76
2022/06/07 10:33:39;;;;;;;1.90;1.52;;;22.80;99.90;;;;;;7389574;19;20157;-77
2022/06/07 10:36:13;;;;;;;2.15;0.90;;;22.90;99.10;;;;;;7390100;19;20142;-76
2022/06/07 10:39:17;;;;;;;1.45;1.33;;;22.90;98.70;;;;;;7387670;19;20502;-74
2022/06/07 10:41:58;;;;;;;1.83;1.60;;;22.80;98.70;;;;;;7387056;19;20154;-76
2022/06/07 10:44:44;;;;;;;2.20;1.60;;;22.80;98.70;;;;;;7389307;19;20135;-75
2022/06/07 10:47:37;;;;;;;1.45;0.70;;;22.70;98.90;;;;;;7390899;19;20231;-75
2022/06/07 10:50:30;;;;;;;1.48;0.80;;;22.80;98.30;;;;;;7386844;19;20146;-75
2022/06/07 10:52:59;;;;;;;2.83;2.20;;;22.70;98.50;;;;;;7386599;19;20936;-74
2022/06/07 10:55:43;;;;;;;1.52;1.08;;;22.70;99.30;;;;;;7390943;19;20150;-76
2022/06/07 10:58:32;;;;;;;1.08;0.75;;;22.80;98.70;;;;;;7386048;19;20123;-76
2022/06/07 11:01:01;;;;;;;1.15;0.82;;;22.60;99.10;;;;;;7388321;19;20139;-74
2022/06/07 11:04:07;;;;;;;1.85;0.77;;;22.60;98.70;;;;;;7388711;19;20195;-75
2022/06/07 11:09:32;;;;;;;2.45;1.00;;;22.60;99.10;;;;;;7386511;19;20154;-76
2022/06/07 11:12:04;;;;;;;2.05;0.98;;;22.60;99.50;;;;;;7390444;19;20130;-74
2022/06/07 11:14:33;;;;;;;1.45;0.90;;;22.60;99.60;;;;;;7385694;19;20161;-76
2022/06/07 11:16:59;;;;;;;0.90;0.70;;;22.70;98.70;;;;;;7389141;19;20258;-77
2022/06/07 11:19:26;;;;;;;10.73;6.45;;;22.70;98.90;;;;;;7382969;19;20195;-75
2022/06/07 11:21:58;;;;;;;0.80;0.70;;;22.60;99.00;;;;;;7391213;19;20135;-75
2022/06/07 11:24:33;;;;;;;0.93;0.73;;;22.80;98.90;;;;;;7387648;19;20138;-77
2022/06/07 11:27:07;;;;;;;1.02;0.60;;;22.90;99.30;;;;;;7388546;19;20565;-77
2022/06/07 11:29:34;;;;;;;1.65;1.00;;;22.80;98.50;;;;;;7387562;19;20135;-74
2022/06/07 11:32:02;;;;;;;2.03;0.70;;;23.00;98.90;;;;;;7385760;19;20151;-74
2022/06/07 11:34:37;;;;;;;1.77;0.77;;;23.00;99.20;;;;;;7386617;19;20158;-74
2022/06/07 11:37:15;;;;;;;0.85;0.50;;;23.30;99.00;;;;;;7390479;19;20159;-75
2022/06/07 11:39:51;;;;;;;0.65;0.60;;;23.60;97.40;;;;;;7388958;19;20141;-74
2022/06/07 11:42:17;;;;;;;0.50;0.50;;;23.70;96.90;;;;;;7388134;19;20473;-76
2022/06/07 11:44:42;;;;;;;1.23;0.68;;;23.60;97.00;;;;;;7389500;19;20151;-76
2022/06/07 11:47:11;;;;;;;0.80;0.77;;;23.60;97.30;;;;;;7388318;19;20564;-77
2022/06/07 11:49:57;;;;;;;0.68;0.50;;;23.40;97.70;;;;;;7383054;19;20138;-76
2022/06/07 11:52:33;;;;;;;1.38;1.08;;;23.20;98.50;;;;;;7389123;19;20217;-74
2022/06/07 11:55:15;;;;;;;1.67;0.90;;;23.10;98.50;;;;;;7390494;19;20138;-75
2022/06/07 11:57:56;;;;;;;1.27;1.00;;;23.10;98.60;;;;;;7385957;19;20150;-76
2022/06/07 12:00:22;;;;;;;1.65;1.48;;;22.90;98.70;;;;;;7386682;19;20143;-76
2022/06/07 12:02:57;;;;;;;2.08;1.00;;;22.80;98.80;;;;;;7386610;19;20155;-76
2022/06/07 12:05:29;;;;;;;1.25;1.15;;;22.60;99.70;;;;;;7386311;19;20178;-76
2022/06/07 12:08:16;;;;;;;1.10;0.90;;;22.70;99.90;;;;;;7382326;19;20182;-77
2022/06/07 12:10:54;;;;;;;1.25;0.75;;;22.70;99.90;;;;;;7386599;19;20156;-75
2022/06/07 12:16:32;;;;;;;0.98;0.88;;;22.80;99.90;;;;;;7387096;19;20613;-76
2022/06/07 12:18:59;;;;;;;2.08;1.45;;;22.80;99.60;;;;;;7382329;19;20166;-75
2022/06/07 12:21:27;;;;;;;1.00;0.80;;;22.80;99.90;;;;;;7388405;19;20140;-77
2022/06/07 12:24:15;;;;;;;1.27;1.00;;;22.80;99.90;;;;;;7385992;19;20142;-75
2022/06/07 12:26:45;;;;;;;0.70;0.70;;;22.90;99.50;;;;;;7385529;19;20173;-76
2022/06/07 12:29:27;;;;;;;1.30;0.90;;;22.90;99.90;;;;;;7380972;19;20156;-74
2022/06/07 12:32:05;;;;;;;4.05;1.20;;;23.00;99.90;;;;;;7384315;19;20150;-74
2022/06/07 12:34:34;;;;;;;0.88;0.80;;;23.10;99.70;;;;;;7387096;19;20524;-74
2022/06/07 12:37:20;;;;;;;0.65;0.65;;;23.00;99.90;;;;;;7386572;19;20231;-75
2022/06/07 12:39:49;;;;;;;1.70;0.90;;;23.20;99.80;;;;;;7387392;19;20138;-75
2022/06/07 12:42:17;;;;;;;1.20;0.70;;;23.10;99.50;;;;;;7387336;19;20138;-75
2022/06/07 12:44:56;;;;;;;7.40;1.90;;;23.00;99.90;;;;;;7385774;19;20146;-75
2022/06/07 12:47:22;;;;;;;1.20;0.85;;;22.90;99.90;;;;;;7387512;19;20142;-74
2022/06/07 12:49:48;;;;;;;1.67;0.80;;;23.00;99.70;;;;;;7383932;19;20143;-74
2022/06/07 12:52:18;;;;;;;2.88;0.80;;;22.90;99.70;;;;;;7386995;19;20280;-73
2022/06/07 12:54:49;;;;;;;0.80;0.80;;;22.90;99.90;;;;;;7385940;19;20134;-74
2022/06/07 12:57:29;;;;;;;1.13;1.00;;;22.90;99.80;;;;;;7385405;19;20143;-74
2022/06/07 13:00:07;;;;;;;1.23;1.10;;;22.80;99.90;;;;;;7387682;19;23299;-75
2022/06/07 13:02:41;;;;;;;1.05;0.80;;;22.80;99.90;;;;;;7386311;19;20167;-75
2022/06/07 13:05:23;;;;;;;2.53;0.93;;;22.80;99.90;;;;;;7384850;19;20233;-74
2022/06/07 13:07:51;;;;;;;1.88;1.08;;;23.00;99.90;;;;;;7385409;19;20591;-74
2022/06/07 13:10:33;;;;;;;0.70;0.63;;;23.10;99.70;;;;;;7386595;19;20514;-74
2022/06/07 13:13:03;;;;;;;2.28;1.30;;;23.00;99.90;;;;;;7389094;19;20149;-74
2022/06/07 13:15:32;;;;;;;2.63;0.90;;;23.00;99.80;;;;;;7389110;19;20148;-73
2022/06/07 13:18:00;;;;;;;1.23;0.80;;;23.10;99.90;;;;;;7394352;19;20174;-74
2022/06/07 13:20:47;;;;;;;1.42;1.00;;;23.00;99.90;;;;;;7391500;19;20153;-73
2022/06/07 13:23:19;;;;;;;1.40;0.90;;;23.20;99.90;;;;;;7393813;19;20601;-74
2022/06/07 13:25:46;;;;;;;0.80;0.80;;;23.40;99.50;;;;;;7392482;19;20162;-73